Time;durP1;ratioP1;P1;durP2;ratioP2;P2;SDS_P1;SDS_P2;PMS_P1;PMS_P2;Temp;Humidity;BMP_temperature;BMP_pressure;BME280_temperature;BME280_humidity;BME280_pressure;Samples;Min_cycle;Max_cycle;Signal;HPM_P1;HPM_P2
2022/05/28 00:00:30;;;;;;;1.10;0.50;;;12.90;89.70;;;;;;5064047;28;20076;-58
2022/05/28 00:02:57;;;;;;;1.60;0.63;;;12.80;89.90;;;;;;5064758;28;20084;-58
2022/05/28 00:05:24;;;;;;;2.63;1.00;;;12.80;90.10;;;;;;5063076;28;20683;-58
2022/05/28 00:07:51;;;;;;;1.10;0.60;;;12.70;90.10;;;;;;5063476;28;20074;-58
2022/05/28 00:10:17;;;;;;;1.90;0.70;;;12.70;90.30;;;;;;5064869;28;20456;-58
2022/05/28 00:12:44;;;;;;;2.15;1.05;;;12.70;90.40;;;;;;5063513;28;20049;-58
2022/05/28 00:15:11;;;;;;;1.52;0.95;;;12.70;90.50;;;;;;5063989;28;20144;-58
2022/05/28 00:17:38;;;;;;;0.90;0.52;;;12.60;90.60;;;;;;5064365;28;20136;-58
2022/05/28 00:20:06;;;;;;;1.58;1.27;;;12.60;90.90;;;;;;5064234;28;20404;-59
2022/05/28 00:22:40;;;;;;;2.28;0.80;;;12.60;90.80;;;;;;5063622;28;20467;-58
2022/05/28 00:25:07;;;;;;;2.25;0.70;;;12.60;91.00;;;;;;5063386;28;20072;-58
2022/05/28 00:27:35;;;;;;;3.10;0.60;;;12.50;91.20;;;;;;5059240;28;20132;-59
2022/05/28 00:30:02;;;;;;;1.70;1.00;;;12.50;91.20;;;;;;5044883;28;20140;-58
2022/05/28 00:32:28;;;;;;;1.80;0.90;;;12.50;91.30;;;;;;5061557;28;20106;-58
2022/05/28 00:34:56;;;;;;;0.93;0.43;;;12.50;91.30;;;;;;5063185;28;20127;-59
2022/05/28 00:37:23;;;;;;;2.38;0.77;;;12.50;91.50;;;;;;5062906;28;20152;-58
2022/05/28 00:39:50;;;;;;;1.20;0.50;;;12.50;91.70;;;;;;5064338;28;20141;-58
2022/05/28 00:42:16;;;;;;;0.65;0.30;;;12.50;91.80;;;;;;5059191;28;20144;-58
2022/05/28 00:44:43;;;;;;;1.63;0.60;;;12.50;92.10;;;;;;5062797;28;20127;-58
2022/05/28 00:47:10;;;;;;;1.00;0.50;;;12.40;92.20;;;;;;5058876;28;20139;-59
2022/05/28 00:49:37;;;;;;;2.42;0.88;;;12.40;92.40;;;;;;5041274;28;20095;-58
2022/05/28 00:52:05;;;;;;;1.33;0.60;;;12.40;92.60;;;;;;5055319;28;20056;-58
2022/05/28 00:54:40;;;;;;;0.75;0.30;;;12.30;92.70;;;;;;5063750;28;20040;-58
2022/05/28 00:57:08;;;;;;;1.60;0.70;;;12.30;93.00;;;;;;5063446;28;20143;-59
2022/05/28 00:59:35;;;;;;;2.63;0.73;;;12.30;93.30;;;;;;5058888;28;20476;-58
2022/05/28 01:02:06;;;;;;;0.98;0.47;;;12.30;93.70;;;;;;5057934;28;20082;-59
2022/05/28 01:05:02;;;;;;;1.67;0.63;;;12.20;93.50;;;;;;5056263;28;20047;-58
2022/05/28 01:07:53;;;;;;;1.92;0.52;;;12.20;93.90;;;;;;5062748;28;20051;-58
2022/05/28 01:10:28;;;;;;;2.10;0.57;;;12.20;94.10;;;;;;5058679;28;20207;-58
2022/05/28 01:13:16;;;;;;;1.25;0.55;;;12.20;94.40;;;;;;5057073;28;20123;-59
2022/05/28 01:15:46;;;;;;;1.58;0.80;;;12.10;94.70;;;;;;5062763;28;20056;-59
2022/05/28 01:18:14;;;;;;;1.70;0.70;;;12.10;94.90;;;;;;5062432;28;20068;-58
2022/05/28 01:20:48;;;;;;;1.27;0.50;;;12.10;95.20;;;;;;5060894;28;20501;-59
2022/05/28 01:23:39;;;;;;;1.13;0.60;;;12.10;95.50;;;;;;5061841;28;20062;-58
2022/05/28 01:26:06;;;;;;;1.52;0.60;;;12.00;95.50;;;;;;5063439;28;20500;-59
2022/05/28 01:28:54;;;;;;;0.60;0.35;;;12.00;95.80;;;;;;5043737;28;20112;-58
2022/05/28 01:31:21;;;;;;;0.85;0.50;;;12.00;95.90;;;;;;5051248;28;20384;-58
2022/05/28 01:33:48;;;;;;;1.23;0.40;;;11.90;96.10;;;;;;5063066;28;20048;-58
2022/05/28 01:36:14;;;;;;;0.88;0.50;;;11.90;96.70;;;;;;5062472;28;20059;-58
2022/05/28 01:38:43;;;;;;;0.90;0.60;;;11.90;96.60;;;;;;5059783;28;20435;-58
2022/05/28 01:41:09;;;;;;;2.97;1.05;;;11.80;96.80;;;;;;5050209;28;20095;-59
2022/05/28 01:43:40;;;;;;;1.35;0.60;;;11.80;96.70;;;;;;5059210;28;20131;-58
2022/05/28 01:46:08;;;;;;;1.20;0.80;;;11.80;97.00;;;;;;5061355;28;20137;-58
2022/05/28 01:48:35;;;;;;;1.08;0.57;;;11.80;97.00;;;;;;5063342;28;20349;-57
2022/05/28 01:51:02;;;;;;;1.42;0.68;;;11.80;96.90;;;;;;5061394;28;20774;-58
2022/05/28 01:56:15;;;;;;;1.90;0.80;;;11.80;96.90;;;;;;5062855;28;20159;-58
2022/05/28 01:58:42;;;;;;;1.23;0.50;;;11.70;97.10;;;;;;5063280;28;20048;-58
2022/05/28 02:01:09;;;;;;;1.52;0.60;;;11.70;97.00;;;;;;5061943;28;20101;-58
2022/05/28 02:03:40;;;;;;;2.42;0.73;;;11.70;97.20;;;;;;5064260;28;20037;-59
2022/05/28 02:06:07;;;;;;;1.00;0.52;;;11.70;97.20;;;;;;5062474;28;20488;-59
2022/05/28 02:08:37;;;;;;;1.42;0.70;;;11.60;97.30;;;;;;5061561;28;20411;-58
2022/05/28 02:11:13;;;;;;;2.15;0.88;;;11.60;97.50;;;;;;5059419;28;20047;-58
2022/05/28 02:14:07;;;;;;;1.20;0.50;;;11.60;97.60;;;;;;5061718;28;20155;-58
2022/05/28 02:16:43;;;;;;;1.25;0.65;;;11.70;97.50;;;;;;5043353;28;20128;-58
2022/05/28 02:19:14;;;;;;;0.95;0.47;;;11.60;97.60;;;;;;5042959;28;20084;-58
2022/05/28 02:21:49;;;;;;;0.85;0.45;;;11.60;97.70;;;;;;5053027;28;20124;-58
2022/05/28 02:24:23;;;;;;;0.28;0.28;;;11.50;97.90;;;;;;5061784;28;20227;-59
2022/05/28 02:26:55;;;;;;;1.25;0.50;;;11.50;98.10;;;;;;5062356;28;20431;-58
2022/05/28 02:29:21;;;;;;;0.77;0.57;;;11.50;98.30;;;;;;5059597;28;20247;-58
2022/05/28 02:31:49;;;;;;;2.75;0.50;;;11.40;98.40;;;;;;5056840;28;20135;-59
2022/05/28 02:34:17;;;;;;;1.25;0.40;;;11.40;98.50;;;;;;5063693;28;20495;-59
2022/05/28 02:36:43;;;;;;;1.23;0.40;;;11.40;98.80;;;;;;5063310;28;20048;-58
2022/05/28 02:39:10;;;;;;;1.95;0.60;;;11.30;98.90;;;;;;5063511;28;20132;-58
2022/05/28 02:41:38;;;;;;;1.00;0.50;;;11.30;99.10;;;;;;5061575;28;20072;-58
2022/05/28 02:44:04;;;;;;;0.43;0.30;;;11.30;99.20;;;;;;5063153;28;20564;-58
2022/05/28 02:46:31;;;;;;;1.08;0.50;;;11.20;99.50;;;;;;5063096;28;20668;-57
2022/05/28 02:48:58;;;;;;;1.35;0.60;;;11.20;99.50;;;;;;5063938;28;20036;-59
2022/05/28 02:51:25;;;;;;;1.05;0.47;;;11.10;99.70;;;;;;5063491;28;20095;-58
2022/05/28 02:53:53;;;;;;;1.35;0.50;;;11.20;99.90;;;;;;5063619;28;20052;-58
2022/05/28 02:56:20;;;;;;;0.65;0.30;;;11.20;99.90;;;;;;5063459;28;20147;-58
2022/05/28 02:58:47;;;;;;;0.43;0.30;;;11.10;99.90;;;;;;5063820;28;20202;-58
2022/05/28 03:01:33;;;;;;;0.85;0.38;;;11.10;99.90;;;;;;5063078;28;20056;-58
2022/05/28 03:04:00;;;;;;;0.75;0.35;;;11.10;99.90;;;;;;5063613;28;20102;-58
2022/05/28 03:06:27;;;;;;;0.95;0.30;;;11.00;99.90;;;;;;5063019;28;20049;-58
2022/05/28 03:08:54;;;;;;;0.90;0.47;;;11.00;99.90;;;;;;5063758;28;20503;-58
2022/05/28 03:11:20;;;;;;;0.65;0.40;;;11.00;99.90;;;;;;5065437;28;20080;-59
2022/05/28 03:13:47;;;;;;;1.52;0.55;;;11.00;99.90;;;;;;5060253;28;20076;-58
2022/05/28 03:16:14;;;;;;;2.05;0.50;;;11.00;99.90;;;;;;5064787;28;20057;-58
2022/05/28 03:18:41;;;;;;;1.15;0.50;;;11.00;99.90;;;;;;5065225;28;20072;-58
2022/05/28 03:21:08;;;;;;;2.05;0.50;;;11.00;99.90;;;;;;5067404;28;20413;-58
2022/05/28 03:23:35;;;;;;;1.90;0.70;;;11.00;99.90;;;;;;5068362;28;20148;-58
2022/05/28 03:26:12;;;;;;;1.73;0.52;;;11.00;99.90;;;;;;5069016;28;20482;-58
2022/05/28 03:28:39;;;;;;;1.38;0.60;;;11.00;99.90;;;;;;5068988;28;20197;-58
2022/05/28 03:31:06;;;;;;;1.95;0.70;;;10.90;99.90;;;;;;5068444;28;20136;-58
2022/05/28 03:33:33;;;;;;;2.75;0.90;;;11.00;99.90;;;;;;5069057;28;20580;-58
2022/05/28 03:35:59;;;;;;;1.60;0.90;;;11.00;99.90;;;;;;5068360;28;20158;-58
2022/05/28 03:38:26;;;;;;;2.50;0.95;;;10.90;99.90;;;;;;5068215;28;20175;-57
2022/05/28 03:40:53;;;;;;;1.83;0.70;;;11.00;99.90;;;;;;5069228;28;20135;-58
2022/05/28 03:43:19;;;;;;;1.33;0.70;;;10.90;99.90;;;;;;5068769;28;20048;-58
2022/05/28 03:45:46;;;;;;;2.08;0.80;;;10.90;99.90;;;;;;5068262;28;20147;-58
2022/05/28 03:48:13;;;;;;;0.85;0.32;;;10.90;99.90;;;;;;5068175;28;20040;-57
2022/05/28 03:50:40;;;;;;;2.10;0.63;;;10.90;99.90;;;;;;5067698;28;20052;-58
2022/05/28 03:53:07;;;;;;;1.45;0.60;;;10.90;99.90;;;;;;5068092;28;20135;-59
2022/05/28 03:55:33;;;;;;;1.65;0.50;;;10.80;99.90;;;;;;5068141;28;20167;-58
2022/05/28 03:58:00;;;;;;;1.13;0.50;;;10.80;99.90;;;;;;5068362;28;20483;-59
2022/05/28 04:00:27;;;;;;;1.67;0.60;;;10.80;99.90;;;;;;5068159;28;20136;-57
2022/05/28 04:02:54;;;;;;;0.77;0.52;;;10.80;99.90;;;;;;5068643;28;20052;-58
2022/05/28 04:05:22;;;;;;;1.10;0.60;;;10.80;99.90;;;;;;5067936;28;20063;-58
2022/05/28 04:07:49;;;;;;;0.77;0.50;;;10.70;99.90;;;;;;5068354;28;20037;-58
2022/05/28 04:10:16;;;;;;;1.30;0.65;;;10.70;99.90;;;;;;5068350;28;20091;-58
2022/05/28 04:12:42;;;;;;;1.52;0.63;;;10.70;99.90;;;;;;5068453;28;20080;-58
2022/05/28 04:15:10;;;;;;;1.48;0.70;;;10.70;99.90;;;;;;5068207;28;20127;-55
2022/05/28 04:17:36;;;;;;;1.40;0.70;;;10.70;99.90;;;;;;5068471;28;20155;-59
2022/05/28 04:20:04;;;;;;;1.27;0.57;;;10.70;99.90;;;;;;5067780;28;20435;-58
2022/05/28 04:22:31;;;;;;;1.73;0.60;;;10.70;99.90;;;;;;5067478;28;20080;-57
2022/05/28 04:24:58;;;;;;;1.98;0.63;;;10.70;99.90;;;;;;5068152;28;20059;-58
2022/05/28 04:27:24;;;;;;;2.10;0.65;;;10.60;99.90;;;;;;5068427;28;20072;-58
2022/05/28 04:29:51;;;;;;;1.13;0.45;;;10.60;99.90;;;;;;5068024;28;20044;-59
2022/05/28 04:32:18;;;;;;;2.88;0.90;;;10.60;99.90;;;;;;5066279;28;20167;-58
2022/05/28 04:34:45;;;;;;;2.90;1.33;;;10.60;99.90;;;;;;5067497;28;20543;-58
2022/05/28 04:37:12;;;;;;;1.88;0.60;;;10.60;99.90;;;;;;5066118;28;20144;-58
2022/05/28 04:39:38;;;;;;;2.67;0.70;;;10.60;99.90;;;;;;5067879;28;20152;-59
2022/05/28 04:42:05;;;;;;;1.55;0.68;;;10.60;99.90;;;;;;5067784;28;20139;-58
2022/05/28 04:44:32;;;;;;;1.95;1.42;;;10.60;99.90;;;;;;5067688;28;20048;-58
2022/05/28 04:46:59;;;;;;;1.85;0.70;;;10.60;99.90;;;;;;5066459;28;20048;-58
2022/05/28 04:49:26;;;;;;;2.08;0.60;;;10.60;99.90;;;;;;5055998;28;20354;-58
2022/05/28 04:51:52;;;;;;;2.50;1.00;;;10.60;99.90;;;;;;5044674;28;20238;-58
2022/05/28 04:54:19;;;;;;;2.67;1.10;;;10.60;99.90;;;;;;5062628;28;20491;-58
2022/05/28 04:56:46;;;;;;;2.38;0.90;;;10.50;99.90;;;;;;5065604;28;20051;-58
2022/05/28 04:59:12;;;;;;;1.98;0.90;;;10.60;99.90;;;;;;5065778;28;20079;-58
2022/05/28 05:01:39;;;;;;;1.63;0.70;;;10.60;99.90;;;;;;5064108;28;20575;-58
2022/05/28 05:04:06;;;;;;;3.17;1.02;;;10.60;99.90;;;;;;5060639;28;20079;-58
2022/05/28 05:06:33;;;;;;;2.92;0.80;;;10.60;99.90;;;;;;5063048;28;20135;-58
2022/05/28 05:08:59;;;;;;;2.45;0.60;;;10.60;99.90;;;;;;5062982;28;20132;-59
2022/05/28 05:11:26;;;;;;;0.75;0.45;;;10.60;99.90;;;;;;5062670;28;20455;-58
2022/05/28 05:13:53;;;;;;;1.40;0.80;;;10.70;99.90;;;;;;5061689;28;20119;-58
2022/05/28 05:16:20;;;;;;;1.65;0.80;;;10.70;99.90;;;;;;5066020;28;20048;-58
2022/05/28 05:18:47;;;;;;;2.10;0.75;;;10.70;99.90;;;;;;5066744;28;20449;-58
2022/05/28 05:21:14;;;;;;;1.05;0.50;;;10.80;99.90;;;;;;5066676;28;20127;-58
2022/05/28 05:23:41;;;;;;;0.75;0.43;;;10.80;99.90;;;;;;5066443;28;20093;-58
2022/05/28 05:26:12;;;;;;;1.20;0.73;;;10.80;99.90;;;;;;5066640;28;20510;-58
2022/05/28 05:28:40;;;;;;;1.13;0.50;;;10.90;99.90;;;;;;5065912;28;20433;-58
2022/05/28 05:31:11;;;;;;;1.40;0.50;;;10.90;99.90;;;;;;5066025;28;20048;-58
2022/05/28 05:33:37;;;;;;;1.30;0.60;;;10.90;99.90;;;;;;5066492;28;20153;-58
2022/05/28 05:36:04;;;;;;;1.83;0.70;;;10.90;99.90;;;;;;5065341;28;20123;-58
2022/05/28 05:38:31;;;;;;;2.30;0.60;;;11.00;99.90;;;;;;5098364;28;20475;-58
2022/05/28 05:40:58;;;;;;;1.70;0.68;;;11.00;99.90;;;;;;5066471;28;20118;-59
2022/05/28 05:43:24;;;;;;;1.23;0.80;;;11.00;99.90;;;;;;5064865;28;20452;-58
2022/05/28 05:45:52;;;;;;;2.13;0.80;;;11.00;99.90;;;;;;5060466;28;20044;-58
2022/05/28 05:48:19;;;;;;;4.03;1.00;;;11.00;99.90;;;;;;5062461;28;20087;-58
2022/05/28 05:50:46;;;;;;;1.98;0.65;;;11.00;99.90;;;;;;5062192;28;20119;-59
2022/05/28 05:53:13;;;;;;;1.63;0.88;;;11.10;99.90;;;;;;5062381;28;20059;-58
2022/05/28 05:55:40;;;;;;;1.73;1.00;;;11.10;99.90;;;;;;5061204;28;20099;-58
2022/05/28 05:58:06;;;;;;;4.18;0.77;;;11.10;99.90;;;;;;5062994;28;20824;-58
2022/05/28 06:00:33;;;;;;;2.72;0.88;;;11.10;99.90;;;;;;5062132;28;20083;-58
2022/05/28 06:03:00;;;;;;;2.03;0.85;;;11.20;99.90;;;;;;5062545;28;20140;-58
2022/05/28 06:05:27;;;;;;;2.10;0.95;;;11.20;99.90;;;;;;5061963;28;20436;-58
2022/05/28 06:07:54;;;;;;;2.88;1.02;;;11.20;99.90;;;;;;5061925;28;20068;-57
2022/05/28 06:10:20;;;;;;;2.08;0.77;;;11.20;99.90;;;;;;5064396;28;20127;-57
2022/05/28 06:12:47;;;;;;;1.80;0.75;;;11.30;99.90;;;;;;5065258;28;20470;-57
2022/05/28 06:15:14;;;;;;;2.42;0.80;;;11.30;99.90;;;;;;5061343;28;20127;-58
2022/05/28 06:17:40;;;;;;;4.07;0.85;;;11.30;99.90;;;;;;5079808;28;20052;-57
2022/05/28 06:20:09;;;;;;;2.72;1.10;;;11.30;99.90;;;;;;5056432;28;20207;-57
2022/05/28 06:22:36;;;;;;;3.63;1.10;;;11.40;99.90;;;;;;5052585;28;20183;-57
2022/05/28 06:25:03;;;;;;;2.78;1.00;;;11.40;99.90;;;;;;5060581;28;20139;-57
2022/05/28 06:27:33;;;;;;;1.92;1.05;;;11.40;99.90;;;;;;5058307;28;20075;-58
2022/05/28 06:30:00;;;;;;;2.50;0.93;;;11.50;99.90;;;;;;5060789;28;20056;-57
2022/05/28 06:32:27;;;;;;;1.98;1.02;;;11.60;99.90;;;;;;5060001;28;20044;-58
2022/05/28 06:34:55;;;;;;;3.72;0.82;;;11.60;99.90;;;;;;5060820;28;20431;-58
2022/05/28 06:37:21;;;;;;;5.05;1.02;;;11.60;99.90;;;;;;5058184;28;20135;-57
2022/05/28 06:39:48;;;;;;;2.35;1.25;;;11.60;99.90;;;;;;5060135;28;20084;-58
2022/05/28 06:42:15;;;;;;;2.28;0.90;;;11.60;99.90;;;;;;5053007;28;20148;-58
2022/05/28 06:44:42;;;;;;;2.53;0.80;;;11.70;99.90;;;;;;5062963;28;20089;-57
2022/05/28 06:47:08;;;;;;;3.38;0.77;;;11.70;99.90;;;;;;5057882;28;20098;-58
2022/05/28 06:49:35;;;;;;;3.03;0.68;;;11.80;99.90;;;;;;5057384;28;20040;-59
2022/05/28 06:52:02;;;;;;;1.30;0.70;;;11.80;99.90;;;;;;5057656;28;20140;-58
2022/05/28 06:54:29;;;;;;;1.38;0.60;;;11.90;99.90;;;;;;5056459;28;20859;-58
2022/05/28 06:56:56;;;;;;;1.70;0.68;;;12.00;99.90;;;;;;5053272;28;20444;-58
2022/05/28 06:59:23;;;;;;;2.58;0.93;;;12.00;99.90;;;;;;5048464;28;20057;-59
2022/05/28 07:01:50;;;;;;;1.13;0.52;;;12.00;99.90;;;;;;5057717;28;20393;-59
2022/05/28 07:04:16;;;;;;;2.53;0.70;;;12.10;99.90;;;;;;5058292;28;20127;-59
2022/05/28 07:06:43;;;;;;;1.90;0.68;;;12.10;99.90;;;;;;5055777;28;20133;-59
2022/05/28 07:09:10;;;;;;;2.60;0.77;;;12.10;99.90;;;;;;5051988;28;20140;-59
2022/05/28 07:11:36;;;;;;;2.85;0.90;;;12.00;99.90;;;;;;5058493;28;20076;-59
2022/05/28 07:14:03;;;;;;;1.92;0.75;;;12.10;99.90;;;;;;5053918;28;20052;-59
2022/05/28 07:16:30;;;;;;;2.20;0.70;;;12.10;99.90;;;;;;5050895;28;20055;-58
2022/05/28 07:18:57;;;;;;;1.65;0.80;;;12.10;99.90;;;;;;5052788;28;20227;-59
2022/05/28 07:21:24;;;;;;;2.75;0.90;;;12.20;99.90;;;;;;5054915;28;20135;-59
2022/05/28 07:23:50;;;;;;;1.52;0.73;;;12.30;99.90;;;;;;5052121;28;20163;-59
2022/05/28 07:26:17;;;;;;;1.30;0.70;;;12.30;99.90;;;;;;5047875;28;20431;-59
2022/05/28 07:28:45;;;;;;;2.45;0.70;;;12.40;99.90;;;;;;5038454;28;20142;-59
2022/05/28 07:31:13;;;;;;;1.60;0.57;;;12.30;99.90;;;;;;5055881;28;20238;-59
2022/05/28 07:33:41;;;;;;;1.25;0.60;;;12.40;99.90;;;;;;5046963;28;20041;-59
2022/05/28 07:36:11;;;;;;;5.10;1.17;;;12.40;99.90;;;;;;5046474;28;20063;-59
2022/05/28 07:38:39;;;;;;;1.75;0.70;;;12.50;99.90;;;;;;5053580;28;20084;-60
2022/05/28 07:41:07;;;;;;;1.45;0.60;;;12.50;99.90;;;;;;5048857;28;20395;-59
2022/05/28 07:43:35;;;;;;;1.55;0.63;;;12.60;99.90;;;;;;5060838;28;20505;-58
2022/05/28 07:46:03;;;;;;;1.77;0.70;;;12.60;99.90;;;;;;5071853;28;20060;-59
2022/05/28 07:48:29;;;;;;;2.20;0.73;;;12.70;99.90;;;;;;5078368;28;20051;-59
2022/05/28 07:50:56;;;;;;;1.23;0.55;;;12.70;99.90;;;;;;5065036;28;20102;-58
2022/05/28 07:53:23;;;;;;;1.20;0.70;;;12.70;99.90;;;;;;5058727;28;20493;-59
2022/05/28 07:55:50;;;;;;;1.23;0.70;;;12.70;99.90;;;;;;5068460;28;20142;-58
2022/05/28 07:58:18;;;;;;;0.73;0.40;;;12.70;99.90;;;;;;5040556;28;20516;-59
2022/05/28 08:00:46;;;;;;;0.98;0.40;;;12.80;99.90;;;;;;5055298;28;20044;-59
2022/05/28 08:03:14;;;;;;;1.25;0.50;;;12.90;99.90;;;;;;5057954;28;20095;-59
2022/05/28 08:05:42;;;;;;;3.08;0.60;;;13.00;99.90;;;;;;5056589;28;20080;-59
2022/05/28 08:08:09;;;;;;;1.08;0.45;;;13.00;99.90;;;;;;5059211;28;20090;-59
2022/05/28 08:10:35;;;;;;;1.60;0.70;;;13.00;99.90;;;;;;5057867;28;20127;-58
2022/05/28 08:13:06;;;;;;;2.55;0.65;;;13.10;99.90;;;;;;5061568;28;20757;-59
2022/05/28 08:15:34;;;;;;;2.13;0.60;;;13.20;99.90;;;;;;5060885;28;20076;-59
2022/05/28 08:18:01;;;;;;;2.08;0.88;;;13.30;99.90;;;;;;5046851;28;20145;-59
2022/05/28 08:23:13;;;;;;;1.70;0.77;;;13.30;99.90;;;;;;5060632;28;20139;-58
2022/05/28 08:25:40;;;;;;;3.00;0.98;;;13.40;99.90;;;;;;5061335;28;20051;-59
2022/05/28 08:28:10;;;;;;;1.92;0.95;;;13.40;99.90;;;;;;5055177;28;20144;-59
2022/05/28 08:30:40;;;;;;;1.33;0.50;;;13.40;99.90;;;;;;5057525;28;20559;-58
2022/05/28 08:33:08;;;;;;;2.53;0.73;;;13.40;99.90;;;;;;5048613;28;20139;-59
2022/05/28 08:35:35;;;;;;;1.27;0.60;;;13.50;99.90;;;;;;5058160;28;20052;-59
2022/05/28 08:38:06;;;;;;;2.85;1.08;;;13.60;99.90;;;;;;5072759;28;20139;-59
2022/05/28 08:40:36;;;;;;;1.58;0.80;;;13.60;99.90;;;;;;5044696;28;20053;-59
2022/05/28 08:43:03;;;;;;;2.08;0.52;;;13.60;99.90;;;;;;5058977;28;20132;-59
2022/05/28 08:45:32;;;;;;;1.15;0.70;;;13.70;99.90;;;;;;5043876;28;20060;-59
2022/05/28 08:47:59;;;;;;;1.42;0.57;;;13.80;99.90;;;;;;5041002;28;20085;-59
2022/05/28 08:50:26;;;;;;;1.42;0.70;;;13.80;99.90;;;;;;5062063;28;20590;-59
2022/05/28 08:53:17;;;;;;;1.52;0.70;;;13.80;99.90;;;;;;5048751;28;20066;-58
2022/05/28 08:55:46;;;;;;;2.67;0.73;;;13.80;99.90;;;;;;5035371;28;20500;-59
2022/05/28 08:58:15;;;;;;;2.28;0.80;;;13.90;99.90;;;;;;5054451;28;20135;-58
2022/05/28 09:01:03;;;;;;;0.95;0.47;;;14.00;99.90;;;;;;5075810;28;20132;-59
2022/05/28 09:03:48;;;;;;;0.88;0.43;;;14.10;99.90;;;;;;5071711;28;20105;-60
2022/05/28 09:06:17;;;;;;;3.92;1.35;;;14.20;99.90;;;;;;5058678;28;20127;-59
2022/05/28 09:08:46;;;;;;;1.70;0.80;;;14.40;99.90;;;;;;5058813;28;20199;-60
2022/05/28 09:11:37;;;;;;;1.10;0.55;;;14.40;99.90;;;;;;5059543;28;20167;-64
2022/05/28 09:14:09;;;;;;;1.08;0.50;;;14.40;99.90;;;;;;5061638;28;20134;-60
2022/05/28 09:16:36;;;;;;;1.60;0.60;;;14.60;99.90;;;;;;5059386;28;20124;-59
2022/05/28 09:19:10;;;;;;;0.82;0.40;;;14.70;99.90;;;;;;5042954;28;20646;-59
2022/05/28 09:21:38;;;;;;;0.63;0.32;;;14.90;99.90;;;;;;5058897;28;20144;-60
2022/05/28 09:24:07;;;;;;;0.88;0.50;;;15.20;99.90;;;;;;5058375;28;20056;-59
2022/05/28 09:26:44;;;;;;;0.88;0.60;;;15.40;99.40;;;;;;5058963;28;20084;-59
2022/05/28 09:29:17;;;;;;;1.10;0.35;;;15.60;98.70;;;;;;5045481;28;20106;-59
2022/05/28 09:32:16;;;;;;;2.80;0.60;;;15.70;99.10;;;;;;5075446;28;20044;-59
2022/05/28 09:34:49;;;;;;;1.00;0.57;;;15.80;99.80;;;;;;5074789;28;20063;-59
2022/05/28 09:37:28;;;;;;;0.77;0.55;;;15.80;98.50;;;;;;5055185;28;20055;-59
2022/05/28 09:40:11;;;;;;;1.73;0.60;;;16.00;98.00;;;;;;5044115;28;20131;-59
2022/05/28 09:43:03;;;;;;;1.45;0.50;;;16.20;98.90;;;;;;5058133;28;20135;-59
2022/05/28 09:46:07;;;;;;;1.80;0.70;;;16.10;98.30;;;;;;5059624;28;20129;-57
2022/05/28 09:48:34;;;;;;;0.98;0.43;;;16.10;98.30;;;;;;5060172;28;20084;-58
2022/05/28 09:51:01;;;;;;;0.60;0.40;;;16.30;97.70;;;;;;5059621;28;20054;-60
2022/05/28 09:56:22;;;;;;;0.57;0.40;;;16.70;97.40;;;;;;5040349;28;20171;-59
2022/05/28 09:58:49;;;;;;;0.95;0.40;;;16.90;96.50;;;;;;5046398;28;20740;-58
2022/05/28 10:01:23;;;;;;;1.55;0.50;;;17.00;95.50;;;;;;5056043;28;20761;-58
2022/05/28 10:06:49;;;;;;;1.38;0.52;;;17.20;96.30;;;;;;5071583;28;20059;-59
2022/05/28 10:09:19;;;;;;;1.30;0.47;;;17.00;95.10;;;;;;5058977;28;20542;-59
2022/05/28 10:11:51;;;;;;;0.80;0.60;;;17.00;96.30;;;;;;5040735;28;20152;-58
2022/05/28 10:14:18;;;;;;;1.42;0.68;;;17.10;96.00;;;;;;5054017;28;20076;-59
2022/05/28 10:16:49;;;;;;;0.90;0.57;;;17.00;95.30;;;;;;5058714;28;20151;-59
2022/05/28 10:19:25;;;;;;;1.17;0.63;;;17.30;95.30;;;;;;5073711;28;20071;-58
2022/05/28 10:21:53;;;;;;;0.77;0.50;;;17.40;95.20;;;;;;5072355;28;20052;-59
2022/05/28 10:24:22;;;;;;;1.48;0.40;;;17.50;94.00;;;;;;5074223;28;20163;-58
2022/05/28 10:26:51;;;;;;;1.95;0.45;;;17.60;94.20;;;;;;5059586;28;20058;-59
2022/05/28 10:29:41;;;;;;;0.98;0.40;;;17.50;94.20;;;;;;5071409;28;20515;-60
2022/05/28 10:32:22;;;;;;;1.35;0.55;;;17.60;94.20;;;;;;5056998;28;20135;-59
2022/05/28 10:35:01;;;;;;;0.43;0.30;;;17.60;93.40;;;;;;5063814;28;20099;-57
2022/05/28 10:37:28;;;;;;;1.02;0.68;;;17.80;93.00;;;;;;5042443;28;20139;-58
2022/05/28 10:40:24;;;;;;;0.80;0.50;;;18.00;94.40;;;;;;5055039;28;20076;-58
2022/05/28 10:43:21;;;;;;;1.27;0.63;;;18.20;93.50;;;;;;5087159;28;20219;-59
2022/05/28 10:45:53;;;;;;;0.52;0.52;;;18.10;92.20;;;;;;5068876;28;20060;-58
2022/05/28 10:48:22;;;;;;;0.43;0.30;;;18.20;92.70;;;;;;5073433;28;20135;-59
2022/05/28 10:50:59;;;;;;;1.45;0.38;;;18.30;91.80;;;;;;5057983;28;20078;-59
2022/05/28 10:53:32;;;;;;;1.40;0.40;;;18.30;91.20;;;;;;5051035;28;20051;-58
2022/05/28 10:56:01;;;;;;;0.63;0.35;;;18.30;92.00;;;;;;5048271;28;20148;-58
2022/05/28 10:59:06;;;;;;;0.73;0.43;;;18.50;93.10;;;;;;5056510;28;20281;-59
2022/05/28 11:01:45;;;;;;;0.80;0.38;;;18.70;91.30;;;;;;5068776;28;20053;-58
2022/05/28 11:04:38;;;;;;;1.17;0.52;;;18.70;91.50;;;;;;5055695;28;20059;-59
2022/05/28 11:07:29;;;;;;;1.40;0.50;;;18.80;91.50;;;;;;5026835;28;20040;-58
2022/05/28 11:10:21;;;;;;;1.60;0.65;;;18.80;90.30;;;;;;5068785;28;20063;-59
2022/05/28 11:13:13;;;;;;;0.40;0.40;;;18.60;90.10;;;;;;5047011;28;20135;-58
2022/05/28 11:16:02;;;;;;;0.90;0.50;;;18.40;91.10;;;;;;5044109;28;20132;-59
2022/05/28 11:18:32;;;;;;;1.02;0.60;;;18.20;90.40;;;;;;5047353;28;20123;-59
2022/05/28 11:21:37;;;;;;;0.38;0.38;;;18.20;90.50;;;;;;5063966;28;20052;-59
2022/05/28 11:24:21;;;;;;;0.75;0.30;;;18.30;91.20;;;;;;5057143;28;20137;-58
2022/05/28 11:26:54;;;;;;;1.75;0.63;;;18.30;90.40;;;;;;5067406;28;20167;-58
2022/05/28 11:29:31;;;;;;;0.90;0.50;;;18.40;90.50;;;;;;5056921;28;20411;-59
2022/05/28 11:32:13;;;;;;;1.55;0.47;;;18.40;90.70;;;;;;5051253;28;20061;-59
2022/05/28 11:34:44;;;;;;;0.38;0.25;;;18.70;91.00;;;;;;5062478;28;20063;-59
2022/05/28 11:37:21;;;;;;;0.30;0.20;;;19.50;90.80;;;;;;5062564;28;20063;-59
2022/05/28 11:40:08;;;;;;;0.30;0.30;;;20.20;89.20;;;;;;5056711;28;20046;-58
2022/05/28 11:43:04;;;;;;;1.85;0.40;;;20.70;84.40;;;;;;5064685;28;20131;-59
2022/05/28 11:45:36;;;;;;;1.88;0.88;;;20.10;85.70;;;;;;5067077;28;20129;-60
2022/05/28 11:48:09;;;;;;;0.63;0.50;;;19.80;85.90;;;;;;5061546;28;20504;-59
2022/05/28 11:53:55;;;;;;;0.40;0.38;;;19.40;88.70;;;;;;5059172;28;20135;-59
2022/05/28 11:56:24;;;;;;;0.47;0.35;;;19.50;87.80;;;;;;5072058;28;20135;-59
2022/05/28 11:58:53;;;;;;;0.75;0.32;;;19.70;88.10;;;;;;5059428;28;20542;-59
2022/05/28 12:01:26;;;;;;;0.57;0.40;;;19.80;88.70;;;;;;5064886;28;20076;-59
2022/05/28 12:03:53;;;;;;;0.45;0.40;;;19.90;88.10;;;;;;5049706;28;20132;-59
2022/05/28 12:06:36;;;;;;;0.40;0.30;;;20.00;88.00;;;;;;5071295;28;20052;-59
2022/05/28 12:09:15;;;;;;;0.35;0.20;;;20.10;85.30;;;;;;5040917;28;20153;-59
2022/05/28 12:11:48;;;;;;;0.28;0.28;;;19.90;85.10;;;;;;5056071;28;20476;-59
2022/05/28 12:14:34;;;;;;;;;;;19.90;88.10;;;;;;5058076;28;20131;-59
2022/05/28 12:17:10;;;;;;;0.40;0.30;;;19.80;86.50;;;;;;5061714;28;19924;-59
2022/05/28 12:20:08;;;;;;;0.30;0.30;;;19.90;87.10;;;;;;5060106;28;20116;-59
2022/05/28 12:22:53;;;;;;;1.38;0.50;;;19.90;87.30;;;;;;5047669;28;20084;-59
2022/05/28 12:25:29;;;;;;;0.60;0.30;;;19.60;85.80;;;;;;5044778;28;20045;-59
2022/05/28 12:27:56;;;;;;;0.88;0.60;;;19.60;85.00;;;;;;5047422;28;20113;-59
2022/05/28 12:30:33;;;;;;;1.77;0.57;;;19.20;85.50;;;;;;5050204;28;20145;-60
2022/05/28 12:33:00;;;;;;;0.90;0.40;;;19.00;86.90;;;;;;5059860;28;20156;-59
2022/05/28 12:35:38;;;;;;;0.93;0.60;;;18.90;86.10;;;;;;5060610;28;20139;-59
2022/05/28 12:38:08;;;;;;;1.98;0.57;;;19.00;85.50;;;;;;5067888;28;20168;-59
2022/05/28 12:40:44;;;;;;;1.13;0.63;;;19.10;85.50;;;;;;5051763;28;20141;-59
2022/05/28 12:43:33;;;;;;;0.88;0.52;;;19.50;84.20;;;;;;5059238;28;20051;-59
2022/05/28 12:46:40;;;;;;;1.45;1.15;;;20.50;81.30;;;;;;5048119;28;20066;-60
2022/05/28 12:49:29;;;;;;;0.88;0.57;;;21.50;77.90;;;;;;5056355;28;20542;-59
2022/05/28 12:52:08;;;;;;;0.40;0.30;;;22.00;76.00;;;;;;5072063;28;20106;-59
2022/05/28 12:54:36;;;;;;;0.85;0.40;;;22.20;74.40;;;;;;5056807;28;20364;-59
2022/05/28 12:57:10;;;;;;;0.57;0.40;;;21.90;75.50;;;;;;5052463;28;20067;-59
2022/05/28 12:59:42;;;;;;;0.45;0.40;;;21.70;75.40;;;;;;5059116;28;20133;-59
2022/05/28 13:02:22;;;;;;;1.13;0.40;;;21.10;77.00;;;;;;5058463;28;20044;-59
2022/05/28 13:05:08;;;;;;;0.63;0.43;;;20.90;77.50;;;;;;5058522;28;20555;-59
2022/05/28 13:07:43;;;;;;;0.52;0.30;;;20.70;80.10;;;;;;5058900;28;20699;-59
2022/05/28 13:10:16;;;;;;;1.40;0.57;;;20.40;78.10;;;;;;5058693;28;20067;-59
2022/05/28 13:12:45;;;;;;;0.98;0.60;;;20.10;80.50;;;;;;5059839;28;20390;-59
2022/05/28 13:15:38;;;;;;;0.50;0.30;;;20.40;81.10;;;;;;5058703;28;20076;-59
2022/05/28 13:18:12;;;;;;;0.32;0.30;;;21.00;79.80;;;;;;5048767;28;20130;-60
2022/05/28 13:21:02;;;;;;;0.45;0.40;;;21.10;77.70;;;;;;5059288;28;20502;-59
2022/05/28 13:23:32;;;;;;;0.43;0.30;;;21.00;77.20;;;;;;5051638;28;20139;-59